Time;durP1;ratioP1;P1;durP2;ratioP2;P2;SDS_P1;SDS_P2;PMS_P1;PMS_P2;Temp;Humidity;BMP_temperature;BMP_pressure;BME280_temperature;BME280_humidity;BME280_pressure;Samples;Min_cycle;Max_cycle;Signal;HPM_P1;HPM_P2
2021/08/05 00:01:22;;;;;;;2.10;1.90;;;19.80;42.70;;;;;;10409466;28;20233;-73
2021/08/05 00:06:27;;;;;;;2.20;2.10;;;19.70;43.60;;;;;;10403494;28;20267;-73
2021/08/05 00:11:31;;;;;;;2.50;2.17;;;19.70;43.40;;;;;;10411187;28;20240;-73
2021/08/05 00:16:34;;;;;;;3.53;1.70;;;19.70;43.00;;;;;;10429896;28;20297;-73
2021/08/05 00:21:38;;;;;;;3.53;2.27;;;19.60;43.10;;;;;;10428290;28;20244;-73
2021/08/05 00:26:41;;;;;;;4.00;2.40;;;19.60;43.70;;;;;;10426922;28;20235;-73
2021/08/05 00:31:45;;;;;;;2.53;2.10;;;19.70;43.40;;;;;;10431271;28;20233;-73
2021/08/05 00:36:49;;;;;;;2.60;2.30;;;19.70;43.50;;;;;;10435190;28;20733;-73
2021/08/05 00:41:52;;;;;;;2.00;1.90;;;19.70;43.90;;;;;;10430900;28;20546;-72
2021/08/05 00:46:56;;;;;;;3.37;2.17;;;19.70;43.60;;;;;;10411116;28;20240;-73
2021/08/05 00:52:01;;;;;;;2.50;2.30;;;19.70;43.60;;;;;;10425784;28;20238;-72
2021/08/05 00:57:05;;;;;;;2.90;2.00;;;19.70;44.60;;;;;;10403622;28;20240;-73
2021/08/05 01:02:11;;;;;;;2.60;2.20;;;19.70;43.50;;;;;;10427944;28;20234;-73
2021/08/05 01:07:22;;;;;;;2.90;2.60;;;19.80;44.00;;;;;;10412116;28;20843;-73
2021/08/05 01:12:32;;;;;;;2.17;1.97;;;19.70;44.40;;;;;;10417281;28;20234;-73
2021/08/05 01:17:40;;;;;;;3.13;2.63;;;19.80;44.40;;;;;;10404135;28;20613;-73
2021/08/05 01:22:55;;;;;;;3.40;2.37;;;19.70;44.40;;;;;;10419348;28;20313;-73
2021/08/05 01:28:02;;;;;;;2.33;2.13;;;19.70;44.50;;;;;;10411277;28;20234;-73
2021/08/05 01:33:06;;;;;;;2.87;2.67;;;19.60;44.40;;;;;;10408509;28;20312;-73
2021/08/05 01:38:13;;;;;;;3.03;2.83;;;19.60;44.20;;;;;;10387394;28;20309;-73
2021/08/05 01:43:19;;;;;;;4.20;3.80;;;19.70;44.80;;;;;;10413580;28;20243;-73
2021/08/05 01:48:23;;;;;;;4.50;3.60;;;19.70;44.90;;;;;;10409066;28;20249;-72
2021/08/05 01:53:26;;;;;;;3.30;3.00;;;19.70;44.40;;;;;;10434996;28;20588;-72
2021/08/05 01:58:31;;;;;;;3.00;2.70;;;19.60;44.40;;;;;;10423627;28;20242;-72
2021/08/05 02:03:34;;;;;;;3.33;3.03;;;19.70;44.90;;;;;;10416493;28;20646;-72
2021/08/05 02:08:41;;;;;;;4.53;2.70;;;19.60;44.40;;;;;;10412901;28;20230;-73
2021/08/05 02:13:46;;;;;;;3.10;2.80;;;19.60;44.90;;;;;;10426677;28;20602;-72
2021/08/05 02:18:51;;;;;;;3.73;3.43;;;19.60;44.90;;;;;;10396927;28;20584;-72
2021/08/05 02:23:58;;;;;;;3.70;3.27;;;19.60;44.60;;;;;;10406856;28;20240;-72
2021/08/05 02:29:03;;;;;;;5.40;3.50;;;19.50;45.20;;;;;;10397007;28;20329;-73
2021/08/05 02:34:08;;;;;;;2.97;2.67;;;19.50;45.00;;;;;;10415679;28;20229;-72
2021/08/05 02:39:11;;;;;;;3.43;3.10;;;19.50;45.00;;;;;;10401746;28;20616;-73
2021/08/05 02:44:17;;;;;;;3.63;3.33;;;19.40;44.90;;;;;;10415105;28;20247;-72
2021/08/05 02:49:21;;;;;;;3.47;3.17;;;19.40;45.60;;;;;;10393256;28;20296;-73
2021/08/05 02:54:24;;;;;;;4.07;3.67;;;19.40;45.20;;;;;;10412723;28;20243;-73
2021/08/05 02:59:29;;;;;;;3.93;3.33;;;19.40;45.20;;;;;;10408058;28;20238;-73
2021/08/05 03:04:33;;;;;;;5.00;3.67;;;19.40;45.60;;;;;;10424957;28;20225;-73
2021/08/05 03:09:36;;;;;;;4.70;4.30;;;19.40;45.30;;;;;;10402509;28;20233;-72
2021/08/05 03:14:41;;;;;;;4.93;4.13;;;19.40;45.40;;;;;;10427355;28;20248;-72
2021/08/05 03:19:44;;;;;;;4.70;4.20;;;19.40;45.90;;;;;;10414010;28;20230;-72
2021/08/05 03:24:47;;;;;;;5.03;4.63;;;19.40;45.50;;;;;;10420122;28;20238;-72
2021/08/05 03:29:52;;;;;;;7.73;5.07;;;19.40;45.50;;;;;;10414453;28;20241;-72
2021/08/05 03:34:55;;;;;;;4.30;3.90;;;19.40;46.10;;;;;;10409848;28;20237;-71
2021/08/05 03:39:59;;;;;;;6.23;5.63;;;19.40;45.60;;;;;;10420264;28;20718;-71
2021/08/05 03:45:03;;;;;;;6.00;5.40;;;19.50;45.90;;;;;;10426670;28;20228;-73
2021/08/05 03:50:08;;;;;;;6.17;5.57;;;19.40;46.20;;;;;;10418779;28;20245;-72
2021/08/05 03:55:16;;;;;;;8.10;6.27;;;19.40;45.90;;;;;;10407251;28;20713;-71
2021/08/05 04:00:20;;;;;;;6.20;5.53;;;19.40;45.80;;;;;;10402616;28;20243;-72
2021/08/05 04:05:23;;;;;;;7.03;6.33;;;19.40;46.30;;;;;;10424331;28;20622;-72
2021/08/05 04:10:27;;;;;;;7.53;6.17;;;19.40;46.00;;;;;;10419387;28;20243;-72
2021/08/05 04:15:31;;;;;;;6.20;5.33;;;19.40;46.00;;;;;;10403271;28;20231;-72
2021/08/05 04:20:35;;;;;;;7.50;5.80;;;19.40;46.60;;;;;;10413680;28;20234;-72
2021/08/05 04:25:38;;;;;;;5.80;5.30;;;19.40;46.10;;;;;;10404871;28;20236;-72
2021/08/05 04:30:43;;;;;;;5.63;5.13;;;19.40;46.00;;;;;;10401989;28;20244;-72
2021/08/05 04:35:46;;;;;;;5.70;5.20;;;19.40;46.40;;;;;;10407489;28;20259;-72
2021/08/05 04:40:49;;;;;;;5.63;5.23;;;19.40;46.10;;;;;;10434671;28;20601;-72
2021/08/05 04:45:53;;;;;;;7.53;5.87;;;19.40;46.30;;;;;;10414499;28;20233;-72
2021/08/05 04:50:57;;;;;;;8.17;6.00;;;19.40;46.90;;;;;;10412943;28;20241;-71
2021/08/05 04:56:00;;;;;;;4.37;3.97;;;19.40;46.40;;;;;;10414990;28;20849;-72
2021/08/05 05:01:04;;;;;;;5.53;5.03;;;19.40;46.30;;;;;;10422829;28;20607;-72
2021/08/05 05:06:08;;;;;;;5.53;5.03;;;19.40;46.90;;;;;;10418577;28;21041;-72
2021/08/05 05:11:11;;;;;;;4.37;3.97;;;19.40;46.50;;;;;;10423801;28;20229;-72
2021/08/05 05:16:16;;;;;;;5.27;4.77;;;19.40;46.40;;;;;;10402700;28;20231;-72
2021/08/05 05:21:19;;;;;;;5.50;5.00;;;19.50;47.10;;;;;;10439217;28;20300;-72
2021/08/05 05:26:22;;;;;;;5.10;4.70;;;19.40;46.30;;;;;;10420828;28;20229;-71
2021/08/05 05:31:27;;;;;;;4.80;4.40;;;19.40;46.40;;;;;;10425578;28;20259;-72
2021/08/05 05:36:30;;;;;;;4.97;4.57;;;19.50;47.10;;;;;;10417039;28;20691;-72
2021/08/05 05:41:33;;;;;;;6.00;5.50;;;19.50;46.70;;;;;;10429875;28;20606;-72
2021/08/05 05:46:38;;;;;;;6.70;6.10;;;19.50;46.40;;;;;;10420099;28;20238;-72
2021/08/05 05:51:41;;;;;;;6.97;6.30;;;19.50;46.90;;;;;;10424184;28;20610;-71
2021/08/05 05:56:44;;;;;;;8.37;6.40;;;19.40;46.50;;;;;;10419237;28;20721;-71
2021/08/05 06:01:49;;;;;;;7.23;6.53;;;19.40;46.40;;;;;;10416284;28;20748;-72
2021/08/05 06:06:53;;;;;;;6.57;5.97;;;19.40;46.90;;;;;;10403874;28;20685;-74
2021/08/05 06:11:56;;;;;;;6.43;5.83;;;19.40;46.60;;;;;;10406231;28;20230;-74
2021/08/05 06:17:00;;;;;;;5.20;4.80;;;19.40;46.70;;;;;;10387412;28;20237;-73
2021/08/05 06:22:04;;;;;;;5.00;4.50;;;19.30;47.30;;;;;;10419669;28;20242;-72
2021/08/05 06:27:07;;;;;;;4.87;4.27;;;19.30;47.00;;;;;;10415883;28;20241;-72
2021/08/05 06:32:12;;;;;;;4.90;4.50;;;19.30;46.80;;;;;;10403324;28;20245;-73
2021/08/05 06:37:15;;;;;;;5.30;4.80;;;19.30;47.80;;;;;;10405037;28;20704;-72
2021/08/05 06:42:18;;;;;;;5.23;4.83;;;19.40;47.30;;;;;;10406016;28;20954;-72
2021/08/05 06:47:22;;;;;;;5.27;4.70;;;19.40;47.30;;;;;;10407979;28;20248;-73
2021/08/05 06:52:26;;;;;;;5.50;4.97;;;19.40;47.70;;;;;;10370567;28;20240;-71
2021/08/05 06:57:29;;;;;;;6.37;5.20;;;19.40;47.10;;;;;;10365533;28;20690;-71
2021/08/05 07:02:34;;;;;;;6.00;4.73;;;19.50;47.20;;;;;;10404790;28;20241;-72
2021/08/05 07:07:38;;;;;;;5.97;5.47;;;19.40;47.40;;;;;;10403398;28;20700;-72
2021/08/05 07:12:41;;;;;;;5.50;5.00;;;19.40;47.00;;;;;;10435675;28;20705;-72
2021/08/05 07:17:46;;;;;;;6.17;5.57;;;19.40;47.00;;;;;;10420140;28;20705;-73
2021/08/05 07:22:50;;;;;;;6.00;5.47;;;19.40;48.00;;;;;;10403987;28;20249;-73
2021/08/05 07:27:53;;;;;;;5.87;5.37;;;19.40;47.60;;;;;;10411588;28;20639;-74
2021/08/05 07:32:58;;;;;;;6.13;5.60;;;19.40;47.80;;;;;;10411794;28;20236;-74
2021/08/05 07:38:01;;;;;;;6.07;5.57;;;19.50;48.30;;;;;;10409206;28;20226;-74
2021/08/05 07:43:04;;;;;;;6.00;5.50;;;19.50;48.20;;;;;;10435684;28;20252;-74
2021/08/05 07:48:09;;;;;;;5.80;5.17;;;19.60;48.40;;;;;;10413076;28;20711;-73
2021/08/05 07:53:12;;;;;;;5.33;4.83;;;19.70;48.50;;;;;;10399969;28;20246;-74
2021/08/05 07:58:15;;;;;;;6.77;6.27;;;19.80;48.60;;;;;;10407384;28;20234;-75
2021/08/05 08:03:20;;;;;;;5.37;4.90;;;19.90;48.70;;;;;;10412247;28;20235;-73
2021/08/05 08:08:24;;;;;;;6.33;5.77;;;20.00;48.70;;;;;;10412645;28;20237;-74
2021/08/05 08:13:28;;;;;;;6.33;5.73;;;20.20;48.90;;;;;;10405974;28;20239;-76
2021/08/05 08:18:34;;;;;;;6.93;5.33;;;20.30;47.90;;;;;;10415014;28;20233;-75
2021/08/05 08:23:37;;;;;;;5.73;5.23;;;20.40;49.10;;;;;;10432086;28;20232;-74
2021/08/05 08:28:40;;;;;;;5.60;5.00;;;20.40;48.10;;;;;;10409341;28;20229;-73
2021/08/05 08:33:45;;;;;;;5.00;4.60;;;20.50;48.20;;;;;;10416432;28;20230;-73
2021/08/05 08:38:48;;;;;;;4.47;4.07;;;20.60;48.20;;;;;;10440097;28;20236;-74
2021/08/05 08:43:51;;;;;;;4.80;4.30;;;20.60;47.90;;;;;;10417666;28;20238;-74
2021/08/05 08:48:56;;;;;;;5.53;5.10;;;20.80;47.70;;;;;;10420939;28;20241;-74
2021/08/05 08:54:03;;;;;;;5.93;5.33;;;20.80;47.70;;;;;;10409480;28;20238;-74
2021/08/05 08:59:07;;;;;;;5.90;5.50;;;20.90;47.80;;;;;;10378344;28;20801;-75
2021/08/05 09:04:13;;;;;;;5.67;5.17;;;20.90;47.50;;;;;;10371699;28;20244;-74
2021/08/05 09:09:17;;;;;;;4.60;4.20;;;20.90;47.20;;;;;;10370958;28;20238;-75
2021/08/05 09:14:42;;;;;;;7.03;4.73;;;21.00;47.30;;;;;;10388232;28;20603;-76
2021/08/05 09:19:47;;;;;;;5.13;4.73;;;21.00;47.40;;;;;;10406500;28;20268;-75
2021/08/05 09:24:50;;;;;;;4.97;4.57;;;21.10;47.30;;;;;;10398899;28;20226;-74
2021/08/05 09:29:53;;;;;;;5.07;4.40;;;21.20;47.60;;;;;;10397207;28;20265;-73
2021/08/05 09:35:07;;;;;;;5.87;5.37;;;21.40;47.50;;;;;;10414433;28;20236;-74
2021/08/05 09:40:11;;;;;;;5.57;5.07;;;21.60;46.10;;;;;;10410322;28;20229;-74
2021/08/05 09:45:14;;;;;;;5.93;5.43;;;21.80;46.70;;;;;;10409191;28;20236;-74
2021/08/05 09:50:24;;;;;;;6.80;5.37;;;22.00;45.70;;;;;;10409389;28;20775;-73
2021/08/05 09:55:28;;;;;;;5.77;4.80;;;22.10;44.70;;;;;;10409589;28;20225;-74
2021/08/05 10:00:42;;;;;;;6.37;5.80;;;22.10;45.40;;;;;;10413763;28;20235;-74
2021/08/05 10:05:58;;;;;;;6.43;5.10;;;22.20;46.10;;;;;;10430326;28;20318;-74
2021/08/05 10:11:01;;;;;;;5.43;5.00;;;22.40;45.00;;;;;;10384292;28;20248;-74
2021/08/05 10:16:06;;;;;;;6.10;5.60;;;22.50;45.10;;;;;;10410033;28;20311;-73
2021/08/05 10:21:13;;;;;;;5.07;4.67;;;22.70;45.10;;;;;;10410346;28;20234;-74
2021/08/05 10:26:16;;;;;;;4.60;4.20;;;22.80;44.70;;;;;;10411248;28;20308;-72
2021/08/05 10:31:21;;;;;;;3.60;3.30;;;22.90;44.10;;;;;;10445765;28;20243;-74
2021/08/05 10:36:25;;;;;;;3.53;3.33;;;23.00;43.20;;;;;;10429518;28;20248;-74
2021/08/05 10:41:30;;;;;;;3.60;3.30;;;23.00;43.10;;;;;;10378990;28;20256;-74
2021/08/05 10:46:34;;;;;;;3.03;2.83;;;23.10;44.30;;;;;;10367297;28;20821;-74
2021/08/05 10:51:41;;;;;;;3.13;2.93;;;23.20;43.50;;;;;;10367947;28;20240;-74
2021/08/05 10:56:44;;;;;;;3.20;3.00;;;23.30;42.80;;;;;;10411084;28;20854;-73
2021/08/05 11:01:49;;;;;;;3.43;3.13;;;23.50;42.70;;;;;;10429313;28;20233;-76
2021/08/05 11:06:54;;;;;;;3.13;2.93;;;23.50;42.10;;;;;;10385631;28;20226;-75
2021/08/05 11:12:18;;;;;;;3.57;3.37;;;23.50;41.40;;;;;;10409376;28;20243;-76
2021/08/05 11:17:21;;;;;;;3.33;3.13;;;23.50;41.80;;;;;;10441831;28;20217;-75
2021/08/05 11:22:52;;;;;;;3.53;3.23;;;23.30;42.00;;;;;;10409799;28;20237;-77
2021/08/05 11:28:24;;;;;;;3.50;3.30;;;23.30;42.30;;;;;;10400297;28;20329;-74
2021/08/05 11:33:54;;;;;;;2.57;2.37;;;23.30;41.20;;;;;;10388224;28;20233;-73
2021/08/05 11:39:09;;;;;;;3.30;3.00;;;23.30;41.30;;;;;;10406390;28;20713;-73
2021/08/05 11:44:38;;;;;;;3.07;2.87;;;23.20;40.50;;;;;;10424901;28;20243;-75
2021/08/05 11:49:44;;;;;;;3.00;2.80;;;23.20;40.00;;;;;;10428468;28;20311;-76
2021/08/05 11:54:51;;;;;;;2.70;2.50;;;23.20;41.30;;;;;;10431939;28;20696;-74
2021/08/05 11:59:57;;;;;;;2.73;2.53;;;23.20;40.50;;;;;;10413575;28;20252;-74
2021/08/05 12:05:00;;;;;;;2.73;2.50;;;23.20;41.20;;;;;;10410604;28;20247;-72
2021/08/05 12:10:12;;;;;;;2.73;2.60;;;23.30;41.60;;;;;;10426781;28;20240;-73
2021/08/05 12:15:17;;;;;;;2.80;2.60;;;23.30;39.40;;;;;;10438768;28;20267;-75
2021/08/05 12:20:28;;;;;;;2.77;2.57;;;23.40;41.00;;;;;;10421155;28;20248;-73
2021/08/05 12:25:41;;;;;;;2.83;2.63;;;23.50;39.60;;;;;;10431193;28;20229;-75
2021/08/05 12:30:48;;;;;;;2.50;2.30;;;23.60;39.70;;;;;;10417236;28;20236;-74
2021/08/05 12:36:03;;;;;;;2.70;2.50;;;23.60;39.70;;;;;;10430099;28;20240;-74
2021/08/05 12:41:08;;;;;;;3.17;2.90;;;23.60;39.70;;;;;;10407630;28;20246;-75
2021/08/05 12:46:11;;;;;;;3.00;2.80;;;23.60;39.70;;;;;;10413509;28;20229;-76
2021/08/05 12:51:16;;;;;;;2.50;2.30;;;23.70;40.50;;;;;;10416079;28;20324;-73
2021/08/05 12:56:39;;;;;;;2.70;2.50;;;23.80;41.00;;;;;;10399095;28;20316;-74
2021/08/05 13:01:43;;;;;;;2.70;2.50;;;24.00;40.00;;;;;;10387715;28;20237;-73
2021/08/05 13:06:51;;;;;;;3.17;2.90;;;24.10;40.10;;;;;;10382720;28;20241;-74
2021/08/05 13:11:57;;;;;;;3.20;2.40;;;24.30;39.40;;;;;;10406164;28;20248;-74
2021/08/05 13:17:05;;;;;;;2.53;2.20;;;24.40;40.40;;;;;;10412200;28;20240;-72
2021/08/05 13:22:08;;;;;;;2.47;2.27;;;24.50;39.20;;;;;;10399478;28;20253;-73
2021/08/05 13:27:18;;;;;;;2.30;2.17;;;24.60;39.90;;;;;;10392804;28;20236;-73
2021/08/05 13:32:24;;;;;;;2.40;2.30;;;24.70;37.50;;;;;;10392872;28;20246;-73
2021/08/05 13:37:28;;;;;;;4.03;2.07;;;24.70;37.30;;;;;;10396999;28;20248;-73
2021/08/05 13:42:35;;;;;;;2.20;2.00;;;24.80;37.40;;;;;;10395731;28;20233;-73
2021/08/05 13:47:39;;;;;;;1.97;1.87;;;24.80;36.10;;;;;;10394851;28;20706;-74
2021/08/05 13:52:42;;;;;;;2.00;1.90;;;24.80;37.50;;;;;;10389903;28;20237;-76
2021/08/05 13:57:48;;;;;;;2.20;2.00;;;24.80;37.30;;;;;;10392406;28;20279;-75
2021/08/05 14:02:51;;;;;;;1.80;1.70;;;24.80;36.10;;;;;;10388070;28;20236;-73
2021/08/05 14:07:56;;;;;;;2.40;2.20;;;24.80;36.60;;;;;;10391606;28;20231;-74
2021/08/05 14:13:01;;;;;;;2.03;1.93;;;24.80;37.40;;;;;;10396047;28;20272;-73
2021/08/05 14:18:05;;;;;;;2.10;1.90;;;24.80;36.80;;;;;;10391617;28;20236;-73
2021/08/05 14:23:11;;;;;;;2.57;2.00;;;24.90;37.60;;;;;;10392447;28;20234;-73
2021/08/05 14:28:16;;;;;;;2.20;2.00;;;24.90;37.40;;;;;;10400731;28;20241;-74
2021/08/05 14:33:19;;;;;;;1.70;1.60;;;25.00;36.00;;;;;;10397279;28;20229;-74
2021/08/05 14:38:22;;;;;;;1.93;1.83;;;25.10;35.90;;;;;;10394097;28;20229;-75
2021/08/05 14:43:27;;;;;;;2.00;1.90;;;25.10;36.40;;;;;;10390733;28;20232;-74
2021/08/05 14:48:32;;;;;;;1.90;1.80;;;25.00;34.80;;;;;;10390690;28;20245;-76
2021/08/05 14:53:35;;;;;;;1.70;1.60;;;25.00;36.30;;;;;;10397450;28;20743;-77
2021/08/05 14:58:40;;;;;;;1.93;1.83;;;25.00;35.70;;;;;;10390398;28;20237;-72
2021/08/05 15:03:43;;;;;;;1.70;1.60;;;25.10;35.50;;;;;;10410448;28;20242;-72
2021/08/05 15:08:46;;;;;;;2.33;1.80;;;25.20;36.30;;;;;;10402867;28;20234;-74
2021/08/05 15:13:51;;;;;;;1.60;1.50;;;25.40;36.20;;;;;;10410352;28;20240;-73
2021/08/05 15:18:54;;;;;;;2.00;1.70;;;25.50;35.10;;;;;;10404838;28;20735;-73
2021/08/05 15:23:58;;;;;;;1.47;1.37;;;25.50;35.50;;;;;;10406430;28;20947;-75
2021/08/05 15:29:03;;;;;;;1.60;1.50;;;25.60;35.40;;;;;;10396965;28;20233;-75
2021/08/05 15:34:06;;;;;;;1.60;1.50;;;25.70;34.70;;;;;;10400288;28;20236;-74
2021/08/05 15:39:09;;;;;;;1.93;1.50;;;25.80;34.80;;;;;;10392489;28;20249;-75
2021/08/05 15:44:15;;;;;;;1.60;1.50;;;25.90;34.70;;;;;;10401200;28;20256;-75
2021/08/05 15:49:18;;;;;;;1.60;1.50;;;26.00;32.90;;;;;;10400528;28;20246;-76
2021/08/05 15:54:21;;;;;;;1.40;1.30;;;26.00;34.00;;;;;;10411342;28;20232;-74
2021/08/05 15:59:26;;;;;;;1.40;1.40;;;26.00;33.60;;;;;;10392937;28;20237;-75
2021/08/05 16:04:29;;;;;;;1.50;1.40;;;26.00;33.40;;;;;;10405681;28;20237;-75
2021/08/05 16:09:32;;;;;;;1.60;1.50;;;26.00;34.80;;;;;;10404387;28;20241;-74
2021/08/05 16:14:37;;;;;;;1.20;1.20;;;26.00;33.60;;;;;;10446236;28;20233;-74
2021/08/05 16:19:40;;;;;;;1.40;1.30;;;26.10;33.00;;;;;;10446714;28;20757;-73
2021/08/05 16:24:44;;;;;;;2.13;1.37;;;26.10;33.30;;;;;;10428573;28;20709;-74
2021/08/05 16:30:10;;;;;;;1.50;1.40;;;26.10;33.00;;;;;;10413458;28;20236;-75
2021/08/05 16:35:13;;;;;;;2.20;1.33;;;26.00;32.70;;;;;;10395140;28;20256;-75
2021/08/05 16:40:20;;;;;;;1.87;1.50;;;26.00;33.20;;;;;;10381240;28;20232;-78
2021/08/05 16:45:25;;;;;;;4.27;1.63;;;26.00;33.70;;;;;;10387267;28;20244;-75
2021/08/05 16:50:48;;;;;;;1.53;1.43;;;26.00;33.20;;;;;;10387151;28;20300;-75
2021/08/05 16:55:51;;;;;;;1.47;1.47;;;26.00;33.70;;;;;;10392818;28;20244;-75
2021/08/05 17:00:56;;;;;;;1.37;1.27;;;26.00;33.70;;;;;;10393771;28;20328;-75
2021/08/05 17:06:00;;;;;;;1.70;1.40;;;26.00;33.30;;;;;;10386340;28;20350;-75
2021/08/05 17:11:03;;;;;;;1.43;1.33;;;26.00;33.90;;;;;;10386958;28;20233;-75
2021/08/05 17:16:08;;;;;;;1.57;1.47;;;25.90;33.80;;;;;;10391451;28;20333;-77
2021/08/05 17:21:11;;;;;;;2.30;1.93;;;25.80;33.90;;;;;;10386053;28;20234;-75
2021/08/05 17:26:15;;;;;;;2.20;2.00;;;25.80;34.20;;;;;;10393679;28;20245;-76
2021/08/05 17:31:20;;;;;;;1.70;1.60;;;25.80;34.10;;;;;;10396893;28;20230;-76
2021/08/05 17:36:23;;;;;;;1.70;1.60;;;25.70;34.10;;;;;;10386377;28;20653;-76
2021/08/05 17:41:26;;;;;;;1.80;1.70;;;25.70;34.60;;;;;;10389693;28;20238;-76
2021/08/05 17:46:31;;;;;;;1.87;1.77;;;25.70;34.90;;;;;;10384697;28;20232;-76
2021/08/05 17:51:35;;;;;;;1.30;1.20;;;25.60;34.50;;;;;;10385562;28;20234;-76
2021/08/05 17:56:38;;;;;;;1.27;1.17;;;25.40;33.40;;;;;;10395526;28;20746;-76
2021/08/05 18:01:43;;;;;;;2.20;1.60;;;25.10;33.80;;;;;;10387117;28;20653;-76
2021/08/05 18:06:46;;;;;;;1.60;1.50;;;24.60;34.10;;;;;;10382630;28;20217;-76
2021/08/05 18:11:50;;;;;;;2.23;1.10;;;24.20;34.70;;;;;;10383130;28;20234;-75
2021/08/05 18:16:54;;;;;;;1.00;1.00;;;23.80;35.10;;;;;;10380576;28;20236;-74
2021/08/05 18:21:58;;;;;;;1.53;1.30;;;23.60;35.40;;;;;;10385275;28;20230;-75
2021/08/05 18:27:01;;;;;;;1.30;1.20;;;23.40;35.50;;;;;;10391643;28;20233;-75
2021/08/05 18:32:06;;;;;;;1.30;1.20;;;23.20;36.00;;;;;;10385441;28;20244;-76
2021/08/05 18:37:10;;;;;;;1.10;1.10;;;23.00;36.30;;;;;;10391382;28;20247;-75
2021/08/05 18:42:13;;;;;;;1.50;1.40;;;22.80;36.50;;;;;;10384535;28;20238;-76
2021/08/05 18:47:18;;;;;;;1.57;1.20;;;22.70;36.80;;;;;;10398751;28;20222;-76
2021/08/05 18:52:27;;;;;;;1.30;1.20;;;22.50;37.20;;;;;;10390952;28;20230;-76
2021/08/05 18:57:30;;;;;;;19.30;4.10;;;22.40;37.40;;;;;;10393533;28;20639;-77
2021/08/05 19:02:35;;;;;;;1.70;1.50;;;22.40;37.70;;;;;;10390094;28;20240;-76
2021/08/05 19:07:39;;;;;;;1.53;1.43;;;22.30;38.10;;;;;;10383010;28;20998;-74
2021/08/05 19:12:43;;;;;;;2.13;1.50;;;22.20;37.90;;;;;;10393148;28;20228;-76
2021/08/05 19:17:47;;;;;;;1.77;1.60;;;22.10;38.30;;;;;;10397160;28;20299;-76
2021/08/05 19:22:52;;;;;;;2.60;1.70;;;22.00;38.30;;;;;;10393388;28;20234;-76
2021/08/05 19:27:55;;;;;;;1.80;1.67;;;22.00;38.30;;;;;;10395665;28;20262;-76
2021/08/05 19:32:59;;;;;;;2.03;1.70;;;21.90;38.20;;;;;;10397043;28;20226;-76
2021/08/05 19:38:03;;;;;;;1.30;1.20;;;21.80;38.80;;;;;;10398536;28;20232;-75
2021/08/05 19:43:06;;;;;;;1.73;1.60;;;21.70;38.60;;;;;;10397349;28;20741;-76
2021/08/05 19:48:12;;;;;;;1.53;1.47;;;21.60;38.90;;;;;;10397305;28;20226;-75
2021/08/05 19:53:15;;;;;;;1.60;1.50;;;21.50;39.60;;;;;;10398431;28;20796;-76
2021/08/05 19:58:18;;;;;;;1.50;1.40;;;21.40;39.10;;;;;;10395519;28;20230;-75
2021/08/05 20:03:23;;;;;;;1.40;1.30;;;21.30;39.00;;;;;;10392934;28;20597;-75
2021/08/05 20:08:26;;;;;;;1.00;1.00;;;21.10;38.90;;;;;;10390070;28;20256;-75
2021/08/05 20:13:31;;;;;;;1.30;1.20;;;21.10;38.60;;;;;;10394922;28;20714;-75
2021/08/05 20:18:36;;;;;;;1.83;1.10;;;21.10;38.50;;;;;;10397222;28;21682;-75
2021/08/05 20:23:40;;;;;;;1.53;1.20;;;21.00;38.60;;;;;;10395565;28;20237;-77
2021/08/05 20:28:44;;;;;;;1.60;1.50;;;21.00;38.60;;;;;;10397807;28;20276;-75
2021/08/05 20:33:49;;;;;;;1.73;1.53;;;21.00;39.60;;;;;;10394366;28;20229;-76
2021/08/05 20:38:53;;;;;;;1.40;1.30;;;20.90;40.50;;;;;;10394320;28;20242;-76
2021/08/05 20:43:56;;;;;;;1.43;1.33;;;20.80;39.50;;;;;;10400083;28;20261;-76
2021/08/05 20:49:01;;;;;;;2.93;1.40;;;20.70;39.60;;;;;;10399110;28;21035;-79
2021/08/05 20:54:04;;;;;;;2.03;1.37;;;20.60;40.10;;;;;;10404360;28;20336;-76
2021/08/05 20:59:08;;;;;;;2.63;1.40;;;20.60;39.90;;;;;;10416949;28;20236;-76
2021/08/05 21:04:13;;;;;;;1.60;1.50;;;20.50;39.90;;;;;;10403889;28;20599;-77
2021/08/05 21:09:16;;;;;;;2.07;1.40;;;20.40;40.40;;;;;;10401680;28;20238;-77
2021/08/05 21:14:19;;;;;;;1.43;1.30;;;20.30;39.90;;;;;;10400494;28;20221;-77
2021/08/05 21:19:24;;;;;;;2.03;1.20;;;20.30;40.00;;;;;;10403471;28;20295;-77
2021/08/05 21:24:28;;;;;;;1.50;1.40;;;20.30;40.60;;;;;;10404810;28;20288;-77
2021/08/05 21:29:31;;;;;;;1.33;1.27;;;20.30;40.40;;;;;;10407904;28;20237;-77
2021/08/05 21:34:36;;;;;;;2.00;1.37;;;20.30;40.30;;;;;;10402480;28;20614;-78
2021/08/05 21:39:40;;;;;;;1.17;1.17;;;20.30;41.50;;;;;;10397955;28;20312;-77
2021/08/05 21:44:43;;;;;;;1.30;1.20;;;20.30;40.40;;;;;;10410654;28;20238;-77
2021/08/05 21:49:48;;;;;;;1.60;1.50;;;20.20;40.50;;;;;;10400422;28;21276;-77
2021/08/05 21:54:51;;;;;;;1.50;1.40;;;20.20;40.90;;;;;;10403183;28;20236;-77
2021/08/05 21:59:54;;;;;;;1.70;1.40;;;20.20;40.80;;;;;;10402917;28;20257;-77
2021/08/05 22:04:59;;;;;;;1.53;1.43;;;20.20;40.90;;;;;;10410094;28;20229;-77
2021/08/05 22:10:03;;;;;;;1.60;1.50;;;20.20;41.30;;;;;;10403323;28;20459;-77
2021/08/05 22:15:07;;;;;;;1.97;1.40;;;20.30;40.90;;;;;;10405495;28;20609;-77
2021/08/05 22:20:13;;;;;;;1.53;1.43;;;20.40;41.10;;;;;;10413255;28;20298;-77
2021/08/05 22:25:16;;;;;;;1.33;1.00;;;20.40;41.60;;;;;;10397683;28;20240;-77
2021/08/05 22:30:20;;;;;;;1.50;1.40;;;20.50;40.90;;;;;;10401369;28;20224;-77
2021/08/05 22:35:25;;;;;;;1.17;1.10;;;20.50;41.10;;;;;;10404832;28;20257;-77
2021/08/05 22:40:28;;;;;;;1.47;1.33;;;20.60;41.40;;;;;;10399900;28;20236;-77
2021/08/05 22:45:32;;;;;;;1.30;1.20;;;20.60;41.10;;;;;;10408945;28;20244;-77
2021/08/05 22:50:36;;;;;;;1.83;1.47;;;20.70;41.20;;;;;;10392821;28;20237;-77
2021/08/05 22:55:40;;;;;;;1.73;1.53;;;20.70;41.50;;;;;;10402397;28;20222;-77
2021/08/05 23:00:43;;;;;;;1.83;1.50;;;20.70;41.20;;;;;;10406794;28;20244;-77
2021/08/05 23:05:48;;;;;;;1.60;1.50;;;20.80;41.20;;;;;;10409725;28;20225;-77
2021/08/05 23:10:51;;;;;;;1.70;1.60;;;20.80;41.70;;;;;;10395928;28;20325;-77
2021/08/05 23:15:54;;;;;;;1.80;1.47;;;20.80;41.20;;;;;;10397884;28;20551;-77
2021/08/05 23:20:59;;;;;;;1.60;1.50;;;20.70;41.20;;;;;;10397814;28;20249;-76
2021/08/05 23:26:02;;;;;;;1.40;1.30;;;20.70;41.80;;;;;;10399960;28;20226;-77
2021/08/05 23:31:05;;;;;;;1.40;1.30;;;20.70;41.50;;;;;;10397360;28;20238;-77
2021/08/05 23:36:10;;;;;;;1.70;1.60;;;20.60;41.50;;;;;;10396753;28;20242;-77
2021/08/05 23:41:14;;;;;;;1.97;1.30;;;20.50;42.10;;;;;;10394783;28;20245;-76
2021/08/05 23:46:17;;;;;;;1.60;1.40;;;20.50;41.90;;;;;;10397426;28;20695;-76
2021/08/05 23:51:21;;;;;;;2.03;1.67;;;20.40;41.90;;;;;;10398785;28;20239;-76
2021/08/05 23:56:24;;;;;;;2.17;1.50;;;20.40;42.50;;;;;;10397341;28;20230;-76
